Terminal Aerodrome Forecast
Issued by NWS Cleveland, OH

Home | Current Version | Previous Version | Text Only | Print | Product List | Glossary Off
Versions: 1 2 3 4 5 6 7 8 9 10 11 12 13 14 15 16 17 18 19 20 21 22 23

000
FTUS41 KCLE 211700
TAFERI
TAF
KERI 211727Z 2118/2218 26010KT P6SM OVC035
      TEMPO 2118/2122 3SM -SHSN OVC020
     FM212300 22007KT P6SM BKN035
     FM220300 19011KT P6SM SCT035
     FM221500 19015G25KT P6SM BKN050 OVC080
     FM221700 19016G26KT 5SM -RA BR BKN030 OVC050=

USA.gov is the U.S. government's official web portal to all federal, state and local government web resources and services.